Time;durP1;ratioP1;P1;durP2;ratioP2;P2;SDS_P1;SDS_P2;PMS_P1;PMS_P2;Temp;Humidity;BMP_temperature;BMP_pressure;BME280_temperature;BME280_humidity;BME280_pressure;Samples;Min_cycle;Max_cycle;Signal;HPM_P1;HPM_P2
2022/01/27 00:04:50;;;;;;;;;36.00;34.50;;;;;5.33;65.35;102703.59;5073527;28;45416;-62
2022/01/27 00:07:15;;;;;;;;;42.25;34.75;;;;;5.39;65.43;102722.97;5074549;27;46860;-64
2022/01/27 00:10:08;;;;;;;;;46.75;37.00;;;;;5.28;65.58;102697.44;5078017;28;45336;-63
2022/01/27 00:12:33;;;;;;;;;41.25;32.25;;;;;5.51;64.97;102730.88;5078877;27;45355;-61
2022/01/27 00:15:09;;;;;;;;;46.25;37.00;;;;;5.52;65.01;102727.34;5078983;27;45234;-61
2022/01/27 00:17:40;;;;;;;;;47.25;42.00;;;;;5.51;64.78;102720.31;5079481;27;45305;-60
2022/01/27 00:20:06;;;;;;;;;55.75;43.75;;;;;5.55;65.77;102722.94;5077379;27;46039;-67
2022/01/27 00:22:32;;;;;;;;;61.75;45.25;;;;;5.53;65.68;102707.97;5078134;28;45408;-62
2022/01/27 00:24:57;;;;;;;;;61.25;45.75;;;;;5.56;65.65;102707.97;5078680;27;45523;-64
2022/01/27 00:27:23;;;;;;;;;46.25;38.25;;;;;5.59;65.60;102714.13;5078839;28;45654;-61
2022/01/27 00:29:48;;;;;;;;;55.75;45.75;;;;;5.59;65.31;102707.97;5078477;27;45490;-60
2022/01/27 00:32:14;;;;;;;;;52.00;44.75;;;;;5.41;64.84;102677.22;5079151;27;45261;-62
2022/01/27 00:34:39;;;;;;;;;55.25;42.50;;;;;5.26;65.88;102654.38;5094569;27;45305;-63
2022/01/27 00:37:05;;;;;;;;;48.50;38.50;;;;;5.50;65.05;102686.88;5077507;27;45241;-64
2022/01/27 00:39:30;;;;;;;;;41.75;35.25;;;;;5.53;64.78;102676.31;5077162;27;46573;-64
2022/01/27 00:41:55;;;;;;;;;54.00;42.75;;;;;5.71;65.06;102701.78;5078111;27;45361;-64
2022/01/27 00:44:21;;;;;;;;;47.75;38.00;;;;;5.69;64.52;102685.06;5077974;28;45394;-64
2022/01/27 00:46:47;;;;;;;;;50.50;37.00;;;;;5.71;63.99;102678.91;5075661;27;45503;-67
2022/01/27 00:49:12;;;;;;;;;49.75;38.00;;;;;5.68;64.62;102671.00;5076938;28;45483;-65
2022/01/27 00:51:40;;;;;;;;;39.25;38.50;;;;;5.77;64.33;102694.75;5076130;27;45504;-62
2022/01/27 00:56:44;;;;;;;;;41.50;34.50;;;;;5.75;64.60;102670.09;5077799;28;45499;-64
2022/01/27 00:59:25;;;;;;;;;45.75;38.00;;;;;5.77;64.05;102670.97;5077122;28;45454;-63
2022/01/27 01:04:33;;;;;;;;;44.25;41.25;;;;;5.79;63.84;102673.59;5077771;27;45305;-63
2022/01/27 01:06:58;;;;;;;;;39.00;33.50;;;;;5.77;63.91;102662.19;5078364;27;45682;-62
2022/01/27 01:10:09;;;;;;;;;46.50;39.25;;;;;5.80;63.73;102670.09;5075864;28;46555;-62
2022/01/27 01:15:08;;;;;;;;;40.25;34.50;;;;;5.84;64.28;102662.13;5078522;28;45401;-64
2022/01/27 01:20:21;;;;;;;;;36.75;32.75;;;;;5.87;64.56;102656.88;5077635;28;45265;-66
2022/01/27 01:37:05;;;;;;;;;42.50;38.75;;;;;5.99;64.47;102636.56;5086473;27;45356;-66
2022/01/27 01:39:36;;;;;;;;;57.75;43.00;;;;;5.97;64.13;102627.78;5077197;27;45491;-68
2022/01/27 01:42:05;;;;;;;;;53.50;40.50;;;;;5.94;64.02;102626.06;5078412;27;46223;-67
2022/01/27 01:44:30;;;;;;;;;53.00;43.75;;;;;5.94;64.03;102633.97;5076295;28;45458;-67
2022/01/27 01:46:55;;;;;;;;;53.00;44.50;;;;;5.97;64.12;102627.78;5076925;27;45816;-61
2022/01/27 01:49:22;;;;;;;;;58.00;41.50;;;;;5.97;63.78;102631.31;5072584;27;45662;-59
2022/01/27 01:51:48;;;;;;;;;41.75;35.50;;;;;5.93;64.40;102626.94;5072605;28;45521;-59
2022/01/27 01:54:14;;;;;;;;;39.75;36.00;;;;;5.96;63.65;102628.69;5090806;27;45484;-61
2022/01/27 01:56:42;;;;;;;;;44.25;31.75;;;;;5.81;64.39;102598.78;5077015;27;45377;-61
2022/01/27 01:59:08;;;;;;;;;42.75;38.50;;;;;5.96;64.90;102613.72;5077447;27;45608;-61
2022/01/27 02:01:35;;;;;;;;;52.00;40.75;;;;;5.95;63.75;102605.81;5077252;27;46155;-60
2022/01/27 02:04:05;;;;;;;;;52.75;41.00;;;;;5.98;64.46;102611.94;5077612;27;45370;-59
2022/01/27 02:06:37;;;;;;;;;56.50;44.00;;;;;5.98;64.38;102611.94;5077193;28;45333;-60
2022/01/27 02:19:54;;;;;;;;;63.00;46.25;;;;;5.86;64.65;102607.59;5077462;28;45492;-64
2022/01/27 02:22:21;;;;;;;;;63.50;48.00;;;;;5.82;65.17;102605.81;5077518;27;45294;-61
2022/01/27 02:24:47;;;;;;;;;66.00;50.50;;;;;5.82;65.32;102605.81;5090956;27;45499;-59
2022/01/27 02:27:14;;;;;;;;;56.50;40.25;;;;;5.75;65.56;102596.19;5063518;28;45749;-56
2022/01/27 02:29:40;;;;;;;;;66.25;48.50;;;;;5.77;65.76;102591.78;5068666;28;45463;-63
2022/01/27 02:32:06;;;;;;;;;53.00;45.50;;;;;5.80;65.56;102602.31;5068598;27;45563;-58
2022/01/27 02:34:32;;;;;;;;;60.00;46.25;;;;;5.81;65.14;102596.16;5092059;27;45354;-60
2022/01/27 02:36:57;;;;;;;;;70.00;51.75;;;;;5.77;65.77;102591.78;5072670;27;46572;-59
2022/01/27 02:39:23;;;;;;;;;56.00;45.50;;;;;5.81;66.18;102596.16;5077112;27;45331;-58
2022/01/27 02:41:49;;;;;;;;;60.75;46.00;;;;;5.68;66.03;102570.69;5077186;27;45268;-58
2022/01/27 02:44:38;;;;;;;;;71.50;50.25;;;;;5.82;66.35;102589.09;5076136;27;45444;-58
2022/01/27 02:47:05;;;;;;;;;62.25;47.75;;;;;5.82;65.35;102589.09;5064675;28;45954;-62
2022/01/27 02:49:30;;;;;;;;;61.50;45.25;;;;;5.79;65.24;102576.78;5071933;28;45574;-63
2022/01/27 02:51:56;;;;;;;;;59.75;44.75;;;;;5.76;65.93;102574.19;5074444;28;45487;-61
2022/01/27 02:54:21;;;;;;;;;63.75;50.25;;;;;5.74;66.35;102569.78;5071186;28;45670;-66
2022/01/27 02:56:47;;;;;;;;;58.75;47.75;;;;;5.63;65.64;102556.63;5073900;27;45500;-56
2022/01/27 02:59:17;;;;;;;;;64.50;50.75;;;;;5.75;66.42;102582.97;5076610;28;45459;-57
2022/01/27 03:01:47;;;;;;;;;63.00;44.50;;;;;5.72;66.06;102572.41;5074704;28;48206;-58
2022/01/27 03:04:14;;;;;;;;;57.50;45.75;;;;;5.72;66.73;102582.97;5075169;28;45411;-56
2022/01/27 03:06:40;;;;;;;;;64.25;50.50;;;;;5.67;66.32;102573.31;5074825;28;45338;-57
2022/01/27 03:09:06;;;;;;;;;65.00;45.75;;;;;5.67;66.30;102568.94;5076415;27;45503;-60
2022/01/27 03:11:40;;;;;;;;;62.25;46.25;;;;;5.68;65.87;102581.25;5063247;28;47000;-62
2022/01/27 03:14:06;;;;;;;;;66.75;49.25;;;;;5.69;66.59;102563.63;5070996;28;45636;-61
2022/01/27 03:16:32;;;;;;;;;64.25;48.25;;;;;5.67;66.44;102557.50;5075388;28;45401;-61
2022/01/27 03:18:58;;;;;;;;;60.00;45.75;;;;;5.68;66.10;102562.75;5076229;27;45485;-60
2022/01/27 03:21:23;;;;;;;;;53.25;45.25;;;;;5.72;66.43;102567.13;5076793;27;45530;-60
2022/01/27 03:23:48;;;;;;;;;65.25;49.50;;;;;5.70;65.99;102563.63;5075243;27;45301;-64
2022/01/27 03:26:14;;;;;;;;;52.75;46.75;;;;;5.66;66.11;102564.53;5073644;27;49082;-60
2022/01/27 03:28:39;;;;;;;;;68.25;45.25;;;;;5.69;66.46;102561.88;5074976;27;45421;-62
2022/01/27 03:31:05;;;;;;;;;58.00;41.75;;;;;5.70;66.56;102571.53;5075956;27;46231;-60
2022/01/27 03:33:31;;;;;;;;;62.25;46.50;;;;;5.66;66.29;102559.25;5074101;28;45380;-60
2022/01/27 03:35:56;;;;;;;;;65.00;45.75;;;;;5.57;65.90;102556.66;5076547;27;45503;-60
2022/01/27 03:38:22;;;;;;;;;56.75;43.50;;;;;5.49;66.66;102538.22;5076401;27;45444;-60
2022/01/27 03:40:47;;;;;;;;;52.75;44.50;;;;;5.66;66.73;102572.44;5075272;27;46447;-59
2022/01/27 03:43:13;;;;;;;;;60.50;46.00;;;;;5.65;66.81;102570.69;5074595;27;45574;-60
2022/01/27 03:45:39;;;;;;;;;60.25;45.25;;;;;5.45;66.61;102556.69;5073825;27;45447;-61
2022/01/27 03:48:05;;;;;;;;;53.00;46.00;;;;;5.46;67.11;102566.34;5075229;28;45615;-61
2022/01/27 03:50:30;;;;;;;;;64.50;49.75;;;;;5.48;66.34;102570.78;5069852;28;48066;-59
2022/01/27 03:52:56;;;;;;;;;62.00;44.75;;;;;5.48;66.65;102569.91;5073247;27;45607;-60
2022/01/27 03:55:21;;;;;;;;;65.50;52.00;;;;;5.25;67.64;102540.94;5074659;27;45508;-60
2022/01/27 03:57:47;;;;;;;;;61.50;49.25;;;;;5.39;67.18;102559.34;5072325;27;45718;-60
2022/01/27 04:00:12;;;;;;;;;63.75;48.75;;;;;5.43;66.71;102561.09;5075464;27;46030;-61
2022/01/27 04:02:50;;;;;;;;;54.50;45.75;;;;;5.43;67.25;102571.66;5074267;27;45849;-60
2022/01/27 04:05:15;;;;;;;;;63.00;46.25;;;;;5.44;67.84;102573.41;5075169;27;45438;-60
2022/01/27 04:07:42;;;;;;;;;66.50;47.00;;;;;5.39;66.96;102543.53;5074908;28;45431;-61
2022/01/27 04:10:08;;;;;;;;;70.75;49.25;;;;;5.47;67.86;102565.47;5074637;27;45494;-62
2022/01/27 04:12:33;;;;;;;;;65.25;49.75;;;;;5.42;67.59;102549.66;5075820;27;45379;-61
2022/01/27 04:14:59;;;;;;;;;56.75;44.75;;;;;5.42;67.21;102547.03;5074925;27;46773;-61
2022/01/27 04:17:24;;;;;;;;;69.75;52.00;;;;;5.50;66.84;102570.75;5072026;28;45504;-60
2022/01/27 04:19:49;;;;;;;;;57.00;46.75;;;;;5.48;66.99;102546.16;5075187;27;45359;-60
2022/01/27 04:22:15;;;;;;;;;55.75;45.00;;;;;5.53;66.98;102558.44;5074191;28;45316;-61
2022/01/27 04:24:40;;;;;;;;;51.00;44.75;;;;;5.46;67.03;102547.88;5074807;27;45445;-61
2022/01/27 04:27:15;;;;;;;;;52.50;44.50;;;;;5.50;67.24;102560.22;5075620;27;45284;-59
2022/01/27 04:29:41;;;;;;;;;49.00;43.25;;;;;5.45;66.65;102556.69;5073275;28;45327;-60
2022/01/27 04:32:09;;;;;;;;;51.75;43.25;;;;;5.50;67.43;102560.22;5073374;27;45242;-63
2022/01/27 04:34:37;;;;;;;;;69.75;51.00;;;;;5.51;67.45;102564.59;5069597;28;45335;-61
2022/01/27 04:37:02;;;;;;;;;64.00;45.50;;;;;5.50;67.22;102561.09;5075218;28;45536;-60
2022/01/27 04:40:07;;;;;;;;;54.75;46.00;;;;;5.48;67.01;102561.97;5075203;28;45449;-59
2022/01/27 04:42:33;;;;;;;;;54.75;45.25;;;;;5.50;66.83;102560.22;5074271;28;45422;-57
2022/01/27 04:45:03;;;;;;;;;59.25;46.25;;;;;5.49;67.57;102563.72;5072368;27;45639;-60
2022/01/27 04:47:35;;;;;;;;;47.75;40.75;;;;;5.46;68.01;102555.81;5071234;28;45606;-58
2022/01/27 04:50:01;;;;;;;;;52.50;41.50;;;;;5.50;67.75;102563.72;5069599;28;45472;-59
2022/01/27 04:52:29;;;;;;;;;57.25;47.75;;;;;5.48;66.88;102552.31;5075424;27;45337;-59
2022/01/27 04:55:04;;;;;;;;;65.00;49.50;;;;;5.51;67.91;102548.75;5077275;28;45625;-59
2022/01/27 04:57:30;;;;;;;;;52.00;42.25;;;;;5.47;67.34;102547.00;5078844;28;45345;-59
2022/01/27 04:59:56;;;;;;;;;54.75;44.50;;;;;5.39;66.99;102536.50;5077018;28;45535;-60
2022/01/27 05:04:59;;;;;;;;;58.00;47.00;;;;;5.45;67.37;102547.00;5078902;27;45426;-62
2022/01/27 05:07:24;;;;;;;;;67.25;49.00;;;;;5.52;67.80;102551.41;5078207;27;45634;-60
2022/01/27 05:09:56;;;;;;;;;56.75;46.00;;;;;5.44;67.39;102536.47;5077771;27;45431;-61
2022/01/27 05:12:46;;;;;;;;;57.25;45.50;;;;;5.48;67.75;102552.31;5071379;28;45444;-59
2022/01/27 05:15:07;;;;;;;;;63.25;43.50;;;;;5.45;67.11;102540.84;5077735;28;45281;-60
2022/01/27 05:17:33;;;;;;;;;56.25;45.25;;;;;5.46;67.73;102542.59;5077247;27;45583;-61
2022/01/27 05:19:58;;;;;;;;;58.50;43.00;;;;;5.49;67.02;102547.91;5078695;27;46302;-58
2022/01/27 05:22:24;;;;;;;;;56.50;45.75;;;;;5.49;67.47;102545.25;5076841;28;45471;-60
2022/01/27 05:24:49;;;;;;;;;62.00;45.00;;;;;5.44;67.39;102529.41;5077848;27;45504;-59
2022/01/27 05:27:15;;;;;;;;;49.00;42.25;;;;;5.52;67.90;102539.97;5077636;27;45447;-59
2022/01/27 05:29:40;;;;;;;;;55.25;44.25;;;;;5.30;67.79;102516.28;5077558;27;45498;-60
2022/01/27 05:32:06;;;;;;;;;56.25;44.75;;;;;5.49;67.05;102539.97;5077810;28;45361;-60
2022/01/27 05:34:32;;;;;;;;;49.75;42.00;;;;;5.52;67.15;102537.31;5076716;27;45443;-60
2022/01/27 05:36:57;;;;;;;;;49.25;41.25;;;;;5.56;67.03;102539.06;5077949;27;45677;-61
2022/01/27 05:39:22;;;;;;;;;59.75;43.25;;;;;5.51;66.82;102543.50;5077962;27;45505;-60
2022/01/27 05:41:48;;;;;;;;;50.75;42.50;;;;;5.42;67.75;102533.84;5076270;28;45394;-59
2022/01/27 05:44:13;;;;;;;;;52.75;41.75;;;;;5.44;67.10;102533.81;5076763;27;45420;-59
2022/01/27 05:46:39;;;;;;;;;54.75;42.75;;;;;5.40;67.60;102537.38;5075574;28;45643;-60
2022/01/27 05:49:04;;;;;;;;;50.00;42.50;;;;;5.42;67.79;102536.47;5073931;27;45483;-60
2022/01/27 05:51:30;;;;;;;;;50.25;42.00;;;;;5.43;67.99;102532.94;5071300;28;45635;-64
2022/01/27 05:53:55;;;;;;;;;53.00;41.75;;;;;5.43;67.20;102535.59;5074952;27;45485;-59
2022/01/27 05:56:20;;;;;;;;;51.50;45.00;;;;;5.39;66.95;102530.34;5077354;27;45604;-59
2022/01/27 05:58:46;;;;;;;;;63.25;40.25;;;;;5.29;67.16;102514.53;5076591;27;45501;-61
2022/01/27 06:01:12;;;;;;;;;52.25;43.75;;;;;5.37;68.23;102538.25;5076687;27;45565;-61
2022/01/27 06:03:38;;;;;;;;;61.25;42.25;;;;;5.39;67.02;102531.22;5073731;28;45416;-61
2022/01/27 06:06:03;;;;;;;;;63.25;43.75;;;;;5.43;67.51;102537.34;5076835;27;45771;-60
2022/01/27 06:08:30;;;;;;;;;46.75;39.00;;;;;5.47;67.60;102540.00;5077424;27;45604;-59
2022/01/27 06:10:56;;;;;;;;;61.25;48.75;;;;;5.42;67.71;102544.38;5074085;27;45417;-57
2022/01/27 06:13:22;;;;;;;;;54.50;46.00;;;;;5.46;67.53;102545.25;5077186;27;45433;-63
2022/01/27 06:15:48;;;;;;;;;60.00;45.75;;;;;5.43;67.74;102540.00;5076253;28;45272;-58
2022/01/27 06:18:13;;;;;;;;;63.00;42.50;;;;;5.40;67.22;102540.00;5076319;27;46963;-59
2022/01/27 06:20:40;;;;;;;;;57.00;45.50;;;;;5.27;67.81;102537.41;5076536;27;45245;-60
2022/01/27 06:23:05;;;;;;;;;39.75;37.75;;;;;5.23;67.40;102519.84;5072598;27;45466;-59
2022/01/27 06:25:31;;;;;;;;;55.50;42.00;;;;;5.49;67.69;102555.81;5077444;27;45453;-60
2022/01/27 06:27:57;;;;;;;;;49.50;42.00;;;;;5.41;67.19;102544.41;5056087;28;46489;-60
2022/01/27 06:30:23;;;;;;;;;51.25;41.00;;;;;5.51;68.06;102564.59;5075775;28;45532;-61
2022/01/27 06:32:48;;;;;;;;;52.75;42.00;;;;;5.55;67.91;102564.56;5076044;28;45333;-57
2022/01/27 06:35:14;;;;;;;;;46.75;41.25;;;;;5.56;67.03;102565.44;5076753;28;45536;-58
2022/01/27 06:37:41;;;;;;;;;57.50;45.25;;;;;5.61;67.58;102558.41;5076749;27;45395;-60
2022/01/27 06:40:10;;;;;;;;;53.25;43.25;;;;;5.55;67.74;102548.72;5076477;27;45496;-59
2022/01/27 06:42:36;;;;;;;;;51.00;36.50;;;;;5.65;66.60;102554.00;5076442;27;45393;-59
2022/01/27 06:45:01;;;;;;;;;45.50;41.50;;;;;5.69;67.12;102558.34;5075445;28;45541;-57
2022/01/27 06:47:27;;;;;;;;;51.25;40.00;;;;;5.61;67.14;102568.97;5056660;27;45379;-58
2022/01/27 06:49:52;;;;;;;;;50.25;42.75;;;;;5.60;67.28;102561.94;5070174;28;45398;-55
2022/01/27 06:52:20;;;;;;;;;54.50;38.50;;;;;5.57;67.31;102572.47;5076225;27;45335;-56
2022/01/27 06:54:48;;;;;;;;;50.75;41.00;;;;;5.58;67.28;102563.69;5075357;28;45524;-59
2022/01/27 06:57:14;;;;;;;;;44.75;36.00;;;;;5.55;67.01;102559.28;5076216;28;45410;-59
2022/01/27 06:59:39;;;;;;;;;35.00;33.25;;;;;5.56;67.77;102566.31;5074646;28;45341;-62
2022/01/27 07:02:05;;;;;;;;;39.25;37.50;;;;;5.53;66.75;102565.47;5076948;27;45376;-60
2022/01/27 07:04:30;;;;;;;;;49.75;42.50;;;;;5.54;67.37;102572.50;5058732;28;45317;-59
2022/01/27 07:06:55;;;;;;;;;58.00;45.00;;;;;5.56;67.16;102565.44;5074098;28;45593;-55
2022/01/27 07:09:21;;;;;;;;;30.00;30.00;;;;;5.54;67.40;102560.19;5074456;27;45484;-58
2022/01/27 07:11:46;;;;;;;;;51.50;42.00;;;;;5.59;66.95;102557.50;5088527;27;45547;-61
2022/01/27 07:14:12;;;;;;;;;40.50;32.00;;;;;5.58;67.30;102569.84;5076582;27;45301;-58
2022/01/27 07:16:38;;;;;;;;;51.25;42.25;;;;;5.59;66.53;102565.44;5076120;28;45541;-57
2022/01/27 07:19:04;;;;;;;;;57.00;43.00;;;;;5.63;67.17;102567.19;5073258;27;45540;-58
2022/01/27 07:21:30;;;;;;;;;49.00;41.50;;;;;5.62;67.73;102565.44;5074591;28;45391;-57
2022/01/27 07:23:55;;;;;;;;;48.25;40.00;;;;;5.60;67.81;102567.22;5108593;27;45516;-59
2022/01/27 07:26:27;;;;;;;;;52.00;35.00;;;;;5.61;67.52;102568.97;5076024;27;45365;-56
2022/01/27 07:28:54;;;;;;;;;43.25;30.00;;;;;5.56;67.63;102566.31;5076903;27;45535;-55
2022/01/27 07:31:20;;;;;;;;;56.75;42.50;;;;;5.52;67.62;102563.72;5076122;27;45311;-58
2022/01/27 07:33:48;;;;;;;;;45.25;37.00;;;;;5.58;67.19;102561.91;5075838;27;45471;-56
2022/01/27 07:36:15;;;;;;;;;46.00;38.50;;;;;5.62;67.49;102565.44;5072579;27;47703;-53
2022/01/27 07:38:40;;;;;;;;;50.75;38.50;;;;;5.63;67.42;102562.78;5075716;27;45409;-52
2022/01/27 07:41:06;;;;;;;;;53.25;42.25;;;;;5.66;67.20;102561.88;5074850;28;45373;-61
2022/01/27 07:43:31;;;;;;;;;56.75;42.50;;;;;5.67;66.80;102558.38;5076080;28;45658;-52
2022/01/27 07:45:57;;;;;;;;;41.50;35.50;;;;;5.69;67.03;102555.72;5076916;28;45814;-54
2022/01/27 07:48:22;;;;;;;;;51.25;37.50;;;;;5.69;66.46;102556.59;5075367;28;45478;-58
2022/01/27 07:50:48;;;;;;;;;54.75;38.75;;;;;5.72;66.81;102575.06;5069362;27;45551;-57
2022/01/27 07:53:14;;;;;;;;;50.25;39.75;;;;;5.72;66.97;102567.13;5071765;28;45377;-57
2022/01/27 07:55:39;;;;;;;;;36.50;30.50;;;;;5.77;67.21;102560.09;5071197;28;47056;-56
2022/01/27 07:58:05;;;;;;;;;39.75;37.00;;;;;5.81;67.21;102558.31;5065261;27;45358;-60
2022/01/27 08:00:30;;;;;;;;;37.75;33.75;;;;;5.76;66.46;102563.63;5055639;27;45429;-58
2022/01/27 08:02:56;;;;;;;;;43.00;35.50;;;;;5.77;66.56;102564.50;5071035;27;45444;-59
2022/01/27 08:05:22;;;;;;;;;51.25;39.00;;;;;5.70;66.68;102558.34;5058660;28;45247;-59
2022/01/27 08:07:47;;;;;;;;;53.75;44.25;;;;;5.78;67.07;102571.53;5074599;28;45282;-58
2022/01/27 08:10:13;;;;;;;;;54.50;43.50;;;;;5.70;67.34;102568.91;5072738;27;45282;-59
2022/01/27 08:12:41;;;;;;;;;46.50;40.00;;;;;5.66;66.32;102553.97;5073257;27;45247;-58
2022/01/27 08:15:08;;;;;;;;;40.25;35.00;;;;;5.79;66.57;102571.50;5062423;27;45493;-58
2022/01/27 08:17:33;;;;;;;;;56.50;42.00;;;;;5.73;67.47;102558.34;5070421;28;45554;-60
2022/01/27 08:19:59;;;;;;;;;54.50;44.00;;;;;5.72;66.57;102553.94;5073184;27;45437;-58
2022/01/27 08:22:24;;;;;;;;;55.25;39.75;;;;;5.86;66.33;102581.19;5073996;27;45462;-57
2022/01/27 08:24:50;;;;;;;;;33.75;29.50;;;;;5.81;67.11;102577.66;5071063;27;45566;-57
2022/01/27 08:27:19;;;;;;;;;48.50;42.50;;;;;5.79;67.39;102582.06;5073178;27;45275;-58
2022/01/27 08:29:51;;;;;;;;;51.75;43.00;;;;;5.84;67.36;102579.41;5068169;28;45436;-55
2022/01/27 08:32:19;;;;;;;;;49.25;40.25;;;;;5.87;67.29;102588.22;5077688;28;45349;-56
2022/01/27 08:34:45;;;;;;;;;52.50;40.75;;;;;5.82;66.71;102589.09;5074221;27;46570;-57
2022/01/27 08:37:18;;;;;;;;;57.25;42.00;;;;;5.78;66.51;102582.09;5058923;28;45280;-59
2022/01/27 08:39:44;;;;;;;;;50.00;35.00;;;;;5.68;66.84;102567.16;5058698;28;45506;-60
2022/01/27 08:42:12;;;;;;;;;61.00;41.75;;;;;5.71;67.47;102575.94;5075094;28;45582;-61
2022/01/27 08:44:38;;;;;;;;;38.75;33.25;;;;;5.80;66.48;102581.19;5073179;28;46052;-57
2022/01/27 08:47:05;;;;;;;;;48.50;41.25;;;;;5.85;66.41;102576.75;5058436;28;45759;-59
2022/01/27 08:49:30;;;;;;;;;41.50;37.75;;;;;5.87;67.00;102571.50;5058533;28;45200;-58
2022/01/27 08:51:57;;;;;;;;;62.75;44.25;;;;;5.86;66.92;102581.19;5040847;28;45409;-58
2022/01/27 08:54:23;;;;;;;;;49.75;43.00;;;;;5.91;67.26;102584.69;5056790;28;46840;-56
2022/01/27 08:56:48;;;;;;;;;53.25;37.25;;;;;5.93;67.17;102581.16;5077036;27;45318;-60
2022/01/27 08:59:16;;;;;;;;;47.00;38.50;;;;;5.87;66.92;102572.38;5077699;27;45377;-58
2022/01/27 09:01:43;;;;;;;;;54.00;42.25;;;;;5.82;66.63;102574.13;5073452;27;45468;-56
2022/01/27 09:04:09;;;;;;;;;48.50;42.75;;;;;5.87;67.11;102568.84;5059037;28;45390;-62
2022/01/27 09:06:35;;;;;;;;;53.00;43.50;;;;;5.97;66.69;102567.03;5077198;28;45383;-60
2022/01/27 09:09:00;;;;;;;;;42.00;37.00;;;;;6.06;66.82;102567.00;5075894;27;45413;-64
2022/01/27 09:11:29;;;;;;;;;42.25;36.50;;;;;5.92;67.00;102559.16;5076924;28;45453;-66
2022/01/27 09:13:55;;;;;;;;;46.25;39.50;;;;;6.00;66.98;102552.09;5077955;27;46010;-66
2022/01/27 09:16:26;;;;;;;;;51.00;38.75;;;;;6.05;66.02;102552.03;5076703;28;45462;-59
2022/01/27 09:18:51;;;;;;;;;53.00;42.75;;;;;6.12;66.50;102548.47;5077117;28;45175;-58
2022/01/27 09:21:22;;;;;;;;;44.75;38.25;;;;;6.16;66.52;102552.88;5078157;27;45390;-57
2022/01/27 09:23:49;;;;;;;;;51.25;40.75;;;;;6.23;66.76;102549.28;5076857;28;46205;-55
2022/01/27 09:29:07;;;;;;;;;44.75;36.25;;;;;6.31;66.40;102552.75;5084941;27;45443;-53
2022/01/27 09:31:33;;;;;;;;;55.00;40.25;;;;;6.29;65.66;102556.28;5076740;27;45262;-53
2022/01/27 09:33:59;;;;;;;;;56.50;43.50;;;;;6.32;66.24;102553.63;5077447;27;46149;-59
2022/01/27 09:36:25;;;;;;;;;54.75;40.75;;;;;6.36;66.40;102553.59;5066449;27;45335;-58
2022/01/27 09:38:50;;;;;;;;;41.75;38.25;;;;;6.32;65.45;102554.50;5057113;28;45569;-59
2022/01/27 09:41:19;;;;;;;;;39.00;36.75;;;;;6.37;66.02;102555.34;5068954;28;45448;-58
2022/01/27 09:43:47;;;;;;;;;44.50;37.75;;;;;6.44;65.74;102554.41;5077019;27;46906;-57
2022/01/27 09:46:16;;;;;;;;;47.50;41.00;;;;;6.45;65.46;102572.03;5073893;27;45333;-60
2022/01/27 09:48:45;;;;;;;;;51.25;40.75;;;;;6.46;66.08;102571.13;5077014;27;45574;-58
2022/01/27 09:53:50;;;;;;;;;56.25;41.75;;;;;6.56;65.80;102550.81;5077236;27;46137;-59
2022/01/27 09:56:15;;;;;;;;;51.75;41.75;;;;;6.66;65.18;102554.25;5077443;28;45356;-59
2022/01/27 09:58:41;;;;;;;;;51.00;44.25;;;;;6.71;65.34;102548.03;5077175;28;45299;-58
2022/01/27 10:01:07;;;;;;;;;42.50;35.50;;;;;6.70;65.10;102535.69;5075004;27;45470;-56
2022/01/27 10:03:33;;;;;;;;;51.50;43.50;;;;;6.76;64.67;102537.38;5070272;28;45626;-56
2022/01/27 10:06:14;;;;;;;;;51.00;43.75;;;;;6.82;65.26;102542.63;5076973;27;45389;-57
2022/01/27 10:08:41;;;;;;;;;45.00;40.00;;;;;6.86;64.78;102541.72;5071003;27;45518;-57
2022/01/27 10:11:18;;;;;;;;;40.25;37.50;;;;;7.00;64.68;102549.50;5077561;28;45556;-57
2022/01/27 10:13:47;;;;;;;;;41.75;37.50;;;;;7.04;64.82;102546.84;5076867;28;46227;-58
2022/01/27 10:16:28;;;;;;;;;41.75;41.00;;;;;7.04;64.32;102540.66;5074239;27;45446;-58
2022/01/27 10:19:07;;;;;;;;;42.75;38.50;;;;;7.09;64.71;102546.78;5085440;27;45259;-58
2022/01/27 10:21:36;;;;;;;;;48.00;41.75;;;;;7.14;63.98;102554.66;5076361;28;45517;-57
2022/01/27 10:24:27;;;;;;;;;43.75;36.00;;;;;7.09;64.18;102560.88;5070269;27;45439;-57
2022/01/27 10:27:20;;;;;;;;;49.25;39.50;;;;;7.05;64.21;102553.00;5066397;28;45704;-58
2022/01/27 10:30:36;;;;;;;;;45.50;39.50;;;;;7.12;64.22;102556.44;5077086;27;45451;-57
2022/01/27 10:32:38;;;;;;;;;37.50;36.75;;;;;7.22;64.51;102555.47;5079131;27;45266;-57
2022/01/27 10:35:04;;;;;;;;;41.75;35.25;;;;;7.21;64.28;102543.13;5075438;27;45308;-60
2022/01/27 10:38:12;;;;;;;;;44.00;38.75;;;;;7.30;64.37;102533.31;5075510;28;45396;-59
2022/01/27 10:40:45;;;;;;;;;44.00;38.25;;;;;7.37;64.22;102534.13;5061158;28;45487;-57
2022/01/27 10:43:19;;;;;;;;;42.75;37.75;;;;;7.31;63.95;102539.50;5075752;28;45354;-57
2022/01/27 10:46:11;;;;;;;;;40.25;35.75;;;;;7.29;64.14;102530.66;5074789;27;46312;-58
2022/01/27 10:49:02;;;;;;;;;52.25;44.50;;;;;7.21;64.51;102527.25;5055142;28;45215;-57
2022/01/27 10:51:37;;;;;;;;;40.75;35.75;;;;;7.24;64.29;102516.63;5077370;27;45415;-60
2022/01/27 10:56:33;;;;;;;;;54.00;41.75;;;;;7.22;64.16;102537.81;5076031;27;45393;-58
2022/01/27 10:59:02;;;;;;;;;41.00;39.00;;;;;7.27;64.45;102548.34;5066941;27;45771;-57
2022/01/27 11:01:33;;;;;;;;;42.00;38.00;;;;;7.23;64.03;102541.34;5076482;28;45455;-58
2022/01/27 11:04:02;;;;;;;;;46.00;37.00;;;;;7.24;64.56;102538.66;5065086;27;45346;-56
2022/01/27 11:06:31;;;;;;;;;50.00;40.50;;;;;7.38;64.43;102542.03;5076487;27;46457;-58
2022/01/27 11:08:58;;;;;;;;;35.50;29.75;;;;;7.41;63.93;102546.41;5076041;27;45377;-53
2022/01/27 11:11:26;;;;;;;;;47.00;40.50;;;;;7.39;63.99;102542.91;5076138;27;45814;-55
2022/01/27 11:13:54;;;;;;;;;46.50;32.00;;;;;7.46;64.14;102543.72;5076856;27;45470;-59
2022/01/27 11:16:27;;;;;;;;;47.50;39.00;;;;;7.43;64.02;102538.47;5075071;28;46175;-57
2022/01/27 11:19:00;;;;;;;;;43.00;36.75;;;;;7.42;63.59;102537.56;5073977;28;45549;-58
2022/01/27 11:21:36;;;;;;;;;57.50;40.00;;;;;7.44;63.70;102535.81;5063282;27;45335;-57
2022/01/27 11:24:14;;;;;;;;;47.75;38.00;;;;;7.51;64.22;102537.47;5076414;27;45392;-56
2022/01/27 11:26:43;;;;;;;;;37.25;33.00;;;;;7.59;63.75;102540.03;5075104;28;46608;-54
2022/01/27 11:29:09;;;;;;;;;51.25;43.50;;;;;7.65;63.73;102535.50;5076142;27;45306;-57
2022/01/27 11:31:54;;;;;;;;;50.50;36.25;;;;;7.63;63.41;102516.13;5086238;27;45487;-59
2022/01/27 11:34:20;;;;;;;;;46.50;39.25;;;;;7.75;63.16;102525.69;5073044;28;45675;-63
2022/01/27 11:37:04;;;;;;;;;55.00;39.50;;;;;7.72;63.58;102514.28;5075131;28;47595;-59
2022/01/27 11:39:49;;;;;;;;;44.25;37.25;;;;;7.74;63.87;102523.06;5074904;28;45422;-55
2022/01/27 11:42:19;;;;;;;;;40.50;35.50;;;;;7.72;63.79;102506.31;5073887;28;45335;-59
2022/01/27 11:44:45;;;;;;;;;42.00;38.00;;;;;7.77;63.50;102513.28;5071134;27;45373;-57
2022/01/27 11:47:16;;;;;;;;;42.25;38.00;;;;;7.85;63.52;102506.13;5075793;28;45640;-55
2022/01/27 11:49:58;;;;;;;;;44.00;39.25;;;;;7.89;63.34;102499.88;5073118;27;45635;-59
2022/01/27 11:52:28;;;;;;;;;41.75;38.00;;;;;7.98;63.55;102485.63;5075265;27;45233;-56
2022/01/27 11:55:19;;;;;;;;;49.00;41.75;;;;;8.01;62.85;102474.97;5076186;27;45373;-54
2022/01/27 11:57:45;;;;;;;;;47.75;40.50;;;;;8.01;63.17;102492.66;5067101;28;45466;-57
2022/01/27 12:00:22;;;;;;;;;41.25;37.25;;;;;8.03;62.73;102497.03;5072501;27;45594;-56
2022/01/27 12:03:03;;;;;;;;;44.25;33.50;;;;;8.00;62.58;102491.78;5073443;27;45539;-61
2022/01/27 12:05:31;;;;;;;;;52.75;37.75;;;;;7.98;62.86;102496.22;5072967;28;45499;-58
2022/01/27 12:08:09;;;;;;;;;43.75;35.75;;;;;8.03;63.44;102486.41;5078520;27;45797;-57
2022/01/27 12:10:48;;;;;;;;;50.50;37.00;;;;;8.09;63.47;102485.47;5094565;27;45410;-52
2022/01/27 12:13:31;;;;;;;;;48.50;36.75;;;;;8.16;63.05;102489.75;5076501;27;45470;-56